Time;durP1;ratioP1;P1;durP2;ratioP2;P2;SDS_P1;SDS_P2;PMS_P1;PMS_P2;Temp;Humidity;BMP_temperature;BMP_pressure;BME280_temperature;BME280_humidity;BME280_pressure;Samples;Min_cycle;Max_cycle;Signal;HPM_P1;HPM_P2
2021/10/20 05:06:34;;;;;;;;;71.75;58.00;;;;;;;;5758566;39;10000777;-64
2021/10/20 05:12:36;;;;;;;;;93.67;73.67;;;;;;;;6490206;31;8959;-62
2021/10/20 08:05:55;;;;;;;;;58.00;49.00;;;;;;;;6491939;31;9058;-59
2021/10/20 08:12:00;;;;;;;;;80.75;64.50;;;;;;;;6488726;46;9107;-61
2021/10/20 08:18:04;;;;;;;;;83.25;65.50;;;;;;;;6488625;31;8893;-60
2021/10/20 08:24:06;;;;;;;;;83.00;64.25;;;;;;;;6487989;46;8887;-60
2021/10/20 08:30:18;;;;;;;;;79.25;61.75;;;;;;;;6487246;39;8871;-60
2021/10/20 08:36:21;;;;;;;;;81.50;64.00;;;;;;;;6486703;31;8918;-61
2021/10/20 08:42:24;;;;;;;;;80.75;63.25;;;;;;;;6488649;39;8859;-61
2021/10/20 08:48:41;;;;;;;;;76.50;62.50;;;;;;;;6489691;31;8881;-60
2021/10/20 08:54:44;;;;;;;;;74.00;58.50;;;;;;;;6488146;31;8903;-59
2021/10/20 09:00:49;;;;;;;;;82.50;63.25;;;;;;;;6488045;39;9571;-60
2021/10/20 09:06:54;;;;;;;;;72.75;56.25;;;;;;;;6489320;31;8876;-60
2021/10/20 09:13:02;;;;;;;;;79.00;62.25;;;;;;;;6487204;47;9022;-60
2021/10/20 09:19:11;;;;;;;;;72.25;57.75;;;;;;;;6490178;31;8959;-61
2021/10/20 09:25:17;;;;;;;;;70.00;56.00;;;;;;;;6489797;46;8907;-60
2021/10/20 09:31:22;;;;;;;;;76.50;60.00;;;;;;;;6490175;31;8821;-59
2021/10/20 09:37:27;;;;;;;;;71.75;57.25;;;;;;;;6489962;39;8876;-60
2021/10/20 09:43:29;;;;;;;;;64.25;53.50;;;;;;;;6488266;39;8873;-59
2021/10/20 09:49:56;;;;;;;;;70.25;56.00;;;;;;;;6488693;39;8924;-61
2021/10/20 09:56:17;;;;;;;;;68.50;52.75;;;;;;;;6487807;31;8904;-60
2021/10/20 10:02:22;;;;;;;;;68.00;54.25;;;;;;;;6487909;31;8885;-62
2021/10/20 10:08:26;;;;;;;;;65.00;53.75;;;;;;;;6489403;31;8870;-61
2021/10/20 10:14:34;;;;;;;;;67.75;56.00;;;;;;;;6482194;39;8995;-60
2021/10/20 10:20:41;;;;;;;;;60.75;50.00;;;;;;;;6487498;39;8952;-61
2021/10/20 10:27:09;;;;;;;;;54.00;43.00;;;;;;;;6488093;31;8864;-61
2021/10/20 10:33:26;;;;;;;;;66.25;54.25;;;;;;;;6488261;39;8917;-61
2021/10/20 10:39:46;;;;;;;;;64.50;52.50;;;;;;;;6487181;39;8999;-60
2021/10/20 10:45:54;;;;;;;;;64.00;52.50;;;;;;;;6488773;46;8992;-60
2021/10/20 10:52:39;;;;;;;;;60.75;48.00;;;;;;;;6488580;31;8892;-61
2021/10/20 10:59:15;;;;;;;;;56.33;48.00;;;;;;;;6489083;46;8878;-61
2021/10/20 11:05:30;;;;;;;;;53.00;44.33;;;;;;;;6487512;39;9594;-61
2021/10/20 11:11:35;;;;;;;;;55.00;43.67;;;;;;;;6489254;31;8980;-61
2021/10/20 11:17:39;;;;;;;;;53.00;44.33;;;;;;;;6488148;39;9611;-62
2021/10/20 11:23:45;;;;;;;;;55.75;43.00;;;;;;;;6486067;31;8907;-61
2021/10/20 11:29:48;;;;;;;;;52.67;46.00;;;;;;;;6487937;39;9543;-60
2021/10/20 11:35:52;;;;;;;;;53.33;45.33;;;;;;;;6486158;46;8956;-61
2021/10/20 11:42:00;;;;;;;;;57.00;47.33;;;;;;;;6487968;39;9659;-63
2021/10/20 11:48:07;;;;;;;;;54.33;45.33;;;;;;;;6486915;46;8884;-62
2021/10/20 11:54:10;;;;;;;;;53.00;44.00;;;;;;;;6488212;39;8848;-63
2021/10/20 12:00:12;;;;;;;;;53.33;43.00;;;;;;;;6487546;39;8986;-61
2021/10/20 12:06:18;;;;;;;;;52.67;45.00;;;;;;;;6487565;31;8861;-61
2021/10/20 12:12:21;;;;;;;;;57.67;44.67;;;;;;;;6486872;31;8900;-60
2021/10/20 12:18:25;;;;;;;;;45.67;39.33;;;;;;;;6487116;39;10162;-60
2021/10/20 12:24:33;;;;;;;;;49.00;37.33;;;;;;;;6487165;31;8967;-61
2021/10/20 12:30:38;;;;;;;;;44.00;36.33;;;;;;;;6486129;46;8845;-62
2021/10/20 12:36:41;;;;;;;;;43.33;36.00;;;;;;;;6484834;46;8911;-60
2021/10/20 12:42:59;;;;;;;;;50.67;40.67;;;;;;;;6486824;32;8992;-61
2021/10/20 12:49:05;;;;;;;;;41.00;38.00;;;;;;;;6486238;46;9027;-61
2021/10/20 12:55:09;;;;;;;;;36.67;35.33;;;;;;;;6487282;46;8997;-60
2021/10/20 13:01:14;;;;;;;;;53.33;43.67;;;;;;;;6485927;31;8959;-61
2021/10/20 13:07:17;;;;;;;;;52.00;44.67;;;;;;;;6483699;31;8915;-60
2021/10/20 13:13:23;;;;;;;;;41.67;38.33;;;;;;;;6484284;39;8978;-60
2021/10/20 13:19:27;;;;;;;;;40.67;35.00;;;;;;;;6485202;31;9023;-61
2021/10/20 13:25:31;;;;;;;;;38.67;36.33;;;;;;;;6485736;39;8887;-60
2021/10/20 13:31:36;;;;;;;;;38.00;35.67;;;;;;;;6484397;39;8881;-61
2021/10/20 13:37:39;;;;;;;;;43.00;40.00;;;;;;;;6485367;31;8956;-61
2021/10/20 13:43:43;;;;;;;;;45.00;37.33;;;;;;;;6487202;39;9017;-60
2021/10/20 13:49:45;;;;;;;;;31.00;30.33;;;;;;;;6485935;47;8908;-61
2021/10/20 13:55:47;;;;;;;;;37.67;36.33;;;;;;;;6487402;39;8904;-61
2021/10/20 14:01:50;;;;;;;;;40.67;36.33;;;;;;;;6487145;46;8924;-61
2021/10/20 14:08:02;;;;;;;;;40.67;39.00;;;;;;;;6488113;46;8825;-61
2021/10/20 14:14:06;;;;;;;;;35.67;33.67;;;;;;;;6489756;39;8888;-61
2021/10/20 14:20:10;;;;;;;;;42.00;38.00;;;;;;;;6488233;31;8901;-62
2021/10/20 14:26:13;;;;;;;;;39.33;34.33;;;;;;;;6489339;39;8931;-60
2021/10/20 14:32:16;;;;;;;;;48.33;40.00;;;;;;;;6488551;39;9477;-61
2021/10/20 14:38:18;;;;;;;;;46.33;40.67;;;;;;;;6486869;39;8964;-62
2021/10/20 14:44:43;;;;;;;;;47.00;38.67;;;;;;;;6485788;46;8856;-62
2021/10/20 14:50:50;;;;;;;;;39.33;35.67;;;;;;;;6488339;31;9030;-62
2021/10/20 14:56:53;;;;;;;;;51.67;42.33;;;;;;;;6488047;46;8884;-62
2021/10/20 15:02:59;;;;;;;;;48.00;41.50;;;;;;;;6489271;31;8932;-62
2021/10/20 15:09:03;;;;;;;;;48.75;42.25;;;;;;;;6487790;31;9049;-61
2021/10/20 15:15:06;;;;;;;;;52.00;41.75;;;;;;;;6487579;46;8853;-62
2021/10/20 15:21:12;;;;;;;;;56.25;44.50;;;;;;;;6487255;39;8905;-62
2021/10/20 15:27:18;;;;;;;;;61.75;50.00;;;;;;;;6488084;39;8943;-61
2021/10/20 15:33:21;;;;;;;;;56.50;46.00;;;;;;;;6487731;31;8900;-60
2021/10/20 15:39:23;;;;;;;;;61.50;48.75;;;;;;;;6487728;39;8959;-62
2021/10/20 15:45:27;;;;;;;;;60.75;50.25;;;;;;;;6488611;39;8829;-62
2021/10/20 15:51:30;;;;;;;;;60.50;50.00;;;;;;;;6487516;39;8920;-61
2021/10/20 15:57:33;;;;;;;;;57.25;47.25;;;;;;;;6487595;31;8872;-62
2021/10/20 16:03:37;;;;;;;;;57.75;47.50;;;;;;;;6487873;39;8960;-62
2021/10/20 16:09:40;;;;;;;;;52.75;44.00;;;;;;;;6488224;39;9488;-62
2021/10/20 16:15:44;;;;;;;;;56.50;47.50;;;;;;;;6488634;31;8919;-62
2021/10/20 16:21:47;;;;;;;;;61.25;50.00;;;;;;;;6487498;39;8891;-61
2021/10/20 16:27:49;;;;;;;;;58.25;48.50;;;;;;;;6486642;46;8845;-62
2021/10/20 16:34:09;;;;;;;;;58.75;48.50;;;;;;;;6486499;31;8844;-61
2021/10/20 16:40:14;;;;;;;;;65.00;53.00;;;;;;;;6487602;46;8973;-62
2021/10/20 16:46:18;;;;;;;;;69.25;54.25;;;;;;;;6487767;46;8876;-61
2021/10/20 16:52:21;;;;;;;;;67.25;54.75;;;;;;;;6488051;39;8880;-61
2021/10/20 16:58:23;;;;;;;;;69.75;56.00;;;;;;;;6488371;47;8948;-61
2021/10/20 17:04:25;;;;;;;;;69.25;55.50;;;;;;;;6488278;39;8911;-61
2021/10/20 17:10:27;;;;;;;;;68.75;54.75;;;;;;;;6487906;46;8939;-62
2021/10/20 17:16:30;;;;;;;;;72.50;56.25;;;;;;;;6488708;39;8852;-62
2021/10/20 17:22:34;;;;;;;;;73.75;59.25;;;;;;;;6489180;39;9556;-60
2021/10/20 17:28:37;;;;;;;;;72.00;57.50;;;;;;;;6488421;39;8888;-61
2021/10/20 17:34:40;;;;;;;;;71.25;56.50;;;;;;;;6487893;39;8884;-61
2021/10/20 17:40:44;;;;;;;;;68.25;55.50;;;;;;;;6488833;39;8915;-62
2021/10/20 17:46:50;;;;;;;;;67.25;54.50;;;;;;;;6489642;39;9527;-61
2021/10/20 17:52:54;;;;;;;;;68.25;56.00;;;;;;;;6488858;31;8983;-62
2021/10/20 17:58:57;;;;;;;;;71.00;56.50;;;;;;;;6489241;31;9004;-61
2021/10/20 18:05:01;;;;;;;;;60.00;48.25;;;;;;;;6491093;39;9007;-61
2021/10/20 18:11:07;;;;;;;;;73.25;60.00;;;;;;;;6489352;46;8884;-61
2021/10/20 18:17:14;;;;;;;;;67.25;55.25;;;;;;;;6489187;46;8966;-61
2021/10/20 18:23:16;;;;;;;;;65.25;54.25;;;;;;;;6489650;39;8890;-61
2021/10/20 18:29:20;;;;;;;;;66.25;55.75;;;;;;;;6489513;31;8899;-62
2021/10/20 18:35:24;;;;;;;;;65.75;54.75;;;;;;;;6488730;39;9660;-61
2021/10/20 18:41:29;;;;;;;;;68.00;56.25;;;;;;;;6488835;39;10101;-61
2021/10/20 18:47:32;;;;;;;;;67.00;55.50;;;;;;;;6488171;46;8844;-61
2021/10/20 18:53:40;;;;;;;;;66.25;54.75;;;;;;;;6488046;39;8860;-61
2021/10/20 18:59:44;;;;;;;;;65.50;52.25;;;;;;;;6488002;39;9045;-61
2021/10/20 19:05:47;;;;;;;;;69.25;54.50;;;;;;;;6487358;31;8908;-61
2021/10/20 19:11:50;;;;;;;;;72.50;55.00;;;;;;;;6487761;39;8851;-63
2021/10/20 19:17:52;;;;;;;;;64.50;51.50;;;;;;;;6488193;31;9051;-61
2021/10/20 19:23:55;;;;;;;;;66.50;55.50;;;;;;;;6487803;39;9925;-61
2021/10/20 19:29:57;;;;;;;;;68.00;54.75;;;;;;;;6487939;31;8948;-61
2021/10/20 19:36:01;;;;;;;;;71.50;57.00;;;;;;;;6487566;39;8867;-60
2021/10/20 19:42:13;;;;;;;;;72.00;57.00;;;;;;;;6487457;46;8959;-61
2021/10/20 19:48:15;;;;;;;;;63.50;51.75;;;;;;;;6486283;39;9037;-61
2021/10/20 19:54:19;;;;;;;;;72.75;58.50;;;;;;;;6487809;39;8959;-61
2021/10/20 20:00:22;;;;;;;;;72.25;57.25;;;;;;;;6488464;39;9074;-61
